Time;durP1;ratioP1;P1;durP2;ratioP2;P2;SDS_P1;SDS_P2;PMS_P1;PMS_P2;Temp;Humidity;BMP_temperature;BMP_pressure;BME280_temperature;BME280_humidity;BME280_pressure;Samples;Min_cycle;Max_cycle;Signal;HPM_P1;HPM_P2
2023/08/15 00:03:53;;;;;;;11.68;5.50;;;;;;;17.70;100.00;101184.09;10438510;28;20044;-64
2023/08/15 00:08:54;;;;;;;11.60;5.85;;;;;;;17.66;100.00;101176.63;10436546;28;20045;-65
2023/08/15 00:13:56;;;;;;;10.68;6.32;;;;;;;17.58;100.00;101193.97;10433364;28;20044;-65
2023/08/15 00:18:56;;;;;;;13.90;7.30;;;;;;;17.52;100.00;101177.28;10430564;28;20042;-65
2023/08/15 00:23:57;;;;;;;9.32;6.63;;;;;;;17.40;100.00;101174.06;10438937;28;20052;-65
2023/08/15 00:28:58;;;;;;;8.52;6.10;;;;;;;17.33;100.00;101174.44;10434349;28;20034;-65
2023/08/15 00:33:58;;;;;;;13.57;6.65;;;;;;;17.24;100.00;101164.22;10421809;28;20045;-65
2023/08/15 00:39:02;;;;;;;12.00;7.15;;;;;;;17.17;100.00;101164.56;10434277;28;20060;-65
2023/08/15 00:44:03;;;;;;;11.50;8.32;;;;;;;17.10;100.00;101175.19;10439230;28;20043;-65
2023/08/15 00:49:04;;;;;;;17.35;8.32;;;;;;;17.00;100.00;101167.75;10435232;28;20106;-65
2023/08/15 00:54:05;;;;;;;12.20;8.05;;;;;;;16.90;100.00;101168.66;10436538;28;20041;-65
2023/08/15 00:59:06;;;;;;;11.60;8.25;;;;;;;16.84;100.00;101164.25;10451477;28;20052;-65
2023/08/15 01:04:07;;;;;;;16.83;9.20;;;;;;;16.82;100.00;101162.91;10438414;28;20608;-65
2023/08/15 01:09:08;;;;;;;16.27;9.77;;;;;;;16.75;100.00;101168.75;10436524;28;20044;-65
2023/08/15 01:14:09;;;;;;;11.93;9.27;;;;;;;16.69;100.00;101167.94;10433777;28;20033;-65
2023/08/15 01:19:18;;;;;;;15.27;8.88;;;;;;;16.62;100.00;101153.56;10452827;28;20097;-64
2023/08/15 01:24:19;;;;;;;11.15;8.27;;;;;;;16.57;100.00;101148.03;10442347;28;20056;-66
2023/08/15 01:29:19;;;;;;;10.50;8.55;;;;;;;16.52;100.00;101156.41;10435849;28;20453;-65
2023/08/15 01:34:36;;;;;;;15.95;8.85;;;;;;;16.44;100.00;101127.25;10444834;28;20094;-65
2023/08/15 01:39:37;;;;;;;15.90;8.23;;;;;;;16.45;100.00;101120.56;10418226;28;20048;-65
2023/08/15 01:44:37;;;;;;;14.57;9.50;;;;;;;16.43;100.00;101135.88;10438212;28;20037;-65
2023/08/15 01:49:38;;;;;;;15.68;9.25;;;;;;;16.39;100.00;101132.00;10442900;28;20059;-65
2023/08/15 01:54:38;;;;;;;15.23;8.70;;;;;;;16.35;100.00;101131.78;10441540;28;20049;-65
2023/08/15 01:59:39;;;;;;;15.13;9.05;;;;;;;16.30;100.00;101121.50;10443839;28;20051;-65
2023/08/15 02:04:39;;;;;;;14.30;8.65;;;;;;;16.27;100.00;101115.72;10441307;28;20044;-65
2023/08/15 02:09:40;;;;;;;11.85;9.55;;;;;;;16.25;100.00;101109.63;10442504;28;20033;-65
2023/08/15 02:14:40;;;;;;;16.95;9.73;;;;;;;16.24;100.00;101111.53;10446236;28;20044;-65
2023/08/15 02:19:41;;;;;;;13.25;9.88;;;;;;;16.25;100.00;101104.88;10437877;28;20057;-65
2023/08/15 02:24:42;;;;;;;16.73;10.45;;;;;;;16.21;100.00;101098.25;10444274;28;20516;-66
2023/08/15 02:29:42;;;;;;;13.25;9.75;;;;;;;16.19;100.00;101081.03;10438022;28;20056;-65
2023/08/15 02:34:43;;;;;;;21.02;10.82;;;;;;;16.24;100.00;101088.50;10455507;28;20045;-65
2023/08/15 02:39:43;;;;;;;16.38;11.10;;;;;;;16.23;100.00;101084.88;10440923;28;20073;-66
2023/08/15 02:44:44;;;;;;;20.13;11.00;;;;;;;16.25;100.00;101099.31;10457178;28;20055;-65
2023/08/15 02:49:44;;;;;;;20.35;11.90;;;;;;;16.30;100.00;101098.47;10440400;28;20044;-65
2023/08/15 02:54:44;;;;;;;19.73;12.05;;;;;;;16.35;100.00;101109.56;10441603;28;20115;-65
2023/08/15 02:59:45;;;;;;;20.75;11.85;;;;;;;16.35;100.00;101117.88;10440952;28;20038;-65
2023/08/15 03:04:46;;;;;;;16.67;11.45;;;;;;;16.40;100.00;101100.34;10436699;28;20053;-66
2023/08/15 03:09:46;;;;;;;16.65;12.25;;;;;;;16.38;100.00;101105.38;10412391;28;20029;-65
2023/08/15 03:14:46;;;;;;;29.98;14.30;;;;;;;16.38;100.00;101097.03;10425289;28;20056;-65
2023/08/15 03:19:47;;;;;;;19.50;13.30;;;;;;;16.43;100.00;101099.75;10426762;28;20042;-65
2023/08/15 03:24:47;;;;;;;23.00;15.52;;;;;;;16.49;100.00;101112.50;10436237;28;20037;-66
2023/08/15 03:29:48;;;;;;;25.55;15.10;;;;;;;16.52;100.00;101093.31;10443787;28;20037;-66
2023/08/15 03:34:48;;;;;;;20.63;13.85;;;;;;;16.53;100.00;101105.25;10448325;28;20526;-65
2023/08/15 03:39:49;;;;;;;22.90;13.43;;;;;;;16.55;100.00;101111.34;10439180;28;20067;-65
2023/08/15 03:44:49;;;;;;;21.48;15.25;;;;;;;16.58;100.00;101101.59;10436343;28;20060;-65
2023/08/15 03:49:50;;;;;;;25.60;15.40;;;;;;;16.62;100.00;101108.22;10439773;28;20040;-65
2023/08/15 03:54:50;;;;;;;20.33;14.82;;;;;;;16.67;100.00;101097.91;10453118;28;20045;-65
2023/08/15 03:59:51;;;;;;;25.42;16.15;;;;;;;16.71;100.00;101101.78;10438978;28;20033;-64
2023/08/15 04:04:51;;;;;;;31.63;20.75;;;;;;;16.77;100.00;101093.41;10420935;28;20134;-65
2023/08/15 04:09:52;;;;;;;30.98;18.20;;;;;;;16.88;100.00;101093.03;10436215;28;20061;-65
2023/08/15 04:14:52;;;;;;;27.55;18.95;;;;;;;16.98;100.00;101077.41;10439261;28;20044;-65
2023/08/15 04:19:53;;;;;;;24.08;18.08;;;;;;;17.01;100.00;101072.09;10432305;28;20041;-65
2023/08/15 04:24:53;;;;;;;23.73;16.88;;;;;;;16.89;100.00;101041.06;10434872;28;20110;-65
2023/08/15 04:29:55;;;;;;;26.15;17.58;;;;;;;17.09;100.00;101070.59;10442985;28;20048;-65
2023/08/15 04:34:55;;;;;;;25.20;17.27;;;;;;;17.18;100.00;101076.34;10428350;28;20037;-65
2023/08/15 04:39:56;;;;;;;28.33;17.60;;;;;;;17.23;100.00;101093.00;10440723;28;20033;-65
2023/08/15 04:44:57;;;;;;;30.50;17.40;;;;;;;17.20;100.00;101062.97;10450180;28;20038;-65
2023/08/15 04:49:57;;;;;;;26.90;18.65;;;;;;;17.42;100.00;101088.34;10414914;28;20412;-65
2023/08/15 04:54:58;;;;;;;29.52;19.48;;;;;;;17.52;100.00;101092.97;10439184;28;20049;-65
2023/08/15 04:59:58;;;;;;;27.20;19.30;;;;;;;17.53;100.00;101095.47;10445389;28;20146;-65
2023/08/15 05:04:59;;;;;;;32.28;20.42;;;;;;;17.66;100.00;101118.16;10444254;28;20036;-65
2023/08/15 05:09:59;;;;;;;35.22;20.60;;;;;;;17.79;100.00;101148.06;10444585;28;20045;-65
2023/08/15 05:15:00;;;;;;;29.02;19.75;;;;;;;17.88;100.00;101163.03;10444273;28;20037;-65
2023/08/15 05:20:00;;;;;;;32.50;20.50;;;;;;;18.01;100.00;101157.88;10441522;28;20041;-65
2023/08/15 05:25:00;;;;;;;31.73;20.40;;;;;;;18.07;100.00;101168.66;10457209;28;20045;-66
2023/08/15 05:30:01;;;;;;;31.50;21.58;;;;;;;18.10;100.00;101142.13;10448814;28;20045;-67
2023/08/15 05:35:01;;;;;;;34.50;21.15;;;;;;;18.11;100.00;101132.66;10432293;28;20045;-66
2023/08/15 05:40:02;;;;;;;34.00;20.13;;;;;;;18.11;100.00;101139.06;10440401;28;20043;-66
2023/08/15 05:45:03;;;;;;;33.00;22.02;;;;;;;18.12;100.00;101148.25;10446407;28;20062;-66
2023/08/15 05:50:04;;;;;;;34.25;22.13;;;;;;;18.19;100.00;101159.88;10452904;28;20196;-66
2023/08/15 05:55:04;;;;;;;28.50;20.25;;;;;;;18.26;100.00;101179.81;10445564;28;20179;-67
2023/08/15 06:00:05;;;;;;;36.35;22.60;;;;;;;18.32;100.00;101188.97;10445600;28;20037;-66
2023/08/15 06:05:07;;;;;;;34.70;21.58;;;;;;;18.37;100.00;101202.81;10439977;28;20049;-67
2023/08/15 06:10:07;;;;;;;29.67;19.58;;;;;;;18.46;100.00;101202.97;10441486;28;20037;-67
2023/08/15 06:15:08;;;;;;;28.02;19.10;;;;;;;18.52;100.00;101210.13;10442376;28;20037;-67
2023/08/15 06:20:10;;;;;;;28.00;16.05;;;;;;;18.47;100.00;101221.38;10439671;28;20064;-67
2023/08/15 06:25:10;;;;;;;24.23;13.77;;;;;;;18.47;100.00;101247.28;10434374;28;20481;-67
2023/08/15 06:30:11;;;;;;;27.17;14.38;;;;;;;18.42;100.00;101254.88;10441091;28;20038;-67
2023/08/15 06:35:11;;;;;;;19.58;12.70;;;;;;;18.33;100.00;101275.06;10444522;28;20112;-66
2023/08/15 06:40:12;;;;;;;21.50;13.30;;;;;;;18.27;100.00;101281.84;10435478;28;20038;-67
2023/08/15 06:45:13;;;;;;;21.63;12.27;;;;;;;18.32;100.00;101275.38;10443576;28;20465;-67
2023/08/15 06:50:13;;;;;;;21.42;12.50;;;;;;;18.32;100.00;101273.41;10437686;28;20063;-67
2023/08/15 06:55:14;;;;;;;16.40;10.27;;;;;;;18.24;100.00;101270.44;10443580;28;20063;-67
2023/08/15 07:00:15;;;;;;;18.17;10.73;;;;;;;18.34;100.00;101289.84;10432749;28;20082;-67
2023/08/15 07:05:16;;;;;;;22.45;10.07;;;;;;;18.54;100.00;101309.09;10440175;28;20048;-66
2023/08/15 07:10:16;;;;;;;16.98;10.55;;;;;;;18.78;100.00;101301.84;10439225;28;20052;-67
2023/08/15 07:15:17;;;;;;;12.52;8.90;;;;;;;18.87;100.00;101261.00;10430554;28;20060;-67
2023/08/15 07:20:17;;;;;;;9.85;6.95;;;;;;;19.72;100.00;101309.38;10429457;28;20041;-67
2023/08/15 07:25:18;;;;;;;14.15;6.75;;;;;;;20.16;100.00;101320.03;10439648;28;20044;-66
2023/08/15 07:30:18;;;;;;;12.02;5.40;;;;;;;20.09;100.00;101313.19;10428912;28;20121;-67
2023/08/15 07:35:19;;;;;;;10.55;6.22;;;;;;;20.09;100.00;101308.47;10439122;28;20079;-67
2023/08/15 07:40:21;;;;;;;10.65;5.43;;;;;;;20.25;100.00;101316.53;10435066;28;20037;-67
2023/08/15 07:45:22;;;;;;;10.77;5.82;;;;;;;20.46;100.00;101328.16;10417714;28;20564;-68
2023/08/15 07:50:24;;;;;;;14.20;5.65;;;;;;;20.10;100.00;101337.22;10439301;28;20066;-68
2023/08/15 07:55:30;;;;;;;13.10;5.68;;;;;;;20.06;100.00;101330.59;10426222;28;20038;-67
2023/08/15 08:00:31;;;;;;;9.68;4.05;;;;;;;20.04;100.00;101350.47;10427899;28;20065;-67
2023/08/15 08:05:31;;;;;;;12.73;4.15;;;;;;;20.34;100.00;101345.47;10424877;28;20049;-67
2023/08/15 08:10:32;;;;;;;9.68;3.17;;;;;;;20.58;100.00;101342.47;10422204;28;20068;-68
2023/08/15 08:15:32;;;;;;;9.27;2.42;;;;;;;20.74;100.00;101352.22;10419281;28;20049;-68
2023/08/15 08:20:33;;;;;;;8.40;2.50;;;;;;;20.95;100.00;101354.59;10416990;28;20053;-67
2023/08/15 08:25:34;;;;;;;7.53;2.55;;;;;;;21.16;100.00;101371.75;10427254;28;20049;-68
2023/08/15 08:30:34;;;;;;;8.95;2.97;;;;;;;21.31;100.00;101381.78;10426617;28;20108;-68
2023/08/15 08:35:35;;;;;;;6.28;2.55;;;;;;;21.50;100.00;101390.09;10417980;28;20041;-69
2023/08/15 08:40:35;;;;;;;7.20;2.60;;;;;;;21.48;100.00;101370.78;10471230;28;20048;-68
2023/08/15 08:45:37;;;;;;;5.25;2.05;;;;;;;21.39;100.00;101397.00;10470252;28;20040;-68
2023/08/15 08:50:37;;;;;;;6.18;2.63;;;;;;;21.43;100.00;101398.91;10454695;28;20045;-68
2023/08/15 08:55:38;;;;;;;7.90;1.75;;;;;;;22.08;100.00;101394.00;10458392;28;20044;-67
2023/08/15 09:00:39;;;;;;;7.43;1.77;;;;;;;22.46;100.00;101379.53;10421962;28;20038;-68
2023/08/15 09:05:40;;;;;;;7.65;1.60;;;;;;;22.98;100.00;101382.53;10421339;28;20045;-69
2023/08/15 09:10:41;;;;;;;3.97;1.30;;;;;;;23.23;100.00;101388.56;10434791;28;20045;-68
2023/08/15 09:15:48;;;;;;;4.55;1.17;;;;;;;22.92;100.00;101392.25;10426258;28;20033;-68
2023/08/15 09:20:48;;;;;;;7.35;1.63;;;;;;;22.72;100.00;101397.31;10470296;28;20041;-68
2023/08/15 09:25:53;;;;;;;5.20;1.48;;;;;;;22.43;100.00;101388.59;10466358;28;20045;-69
2023/08/15 09:30:54;;;;;;;6.95;1.88;;;;;;;22.19;100.00;101400.16;10444669;28;20060;-67
2023/08/15 09:35:54;;;;;;;7.57;1.90;;;;;;;22.02;100.00;101404.50;10475889;28;20071;-68
2023/08/15 09:40:55;;;;;;;6.57;1.95;;;;;;;21.77;100.00;101403.97;10481492;28;20041;-68
2023/08/15 09:45:59;;;;;;;5.78;1.55;;;;;;;21.87;100.00;101405.72;10475108;28;20120;-67
2023/08/15 09:50:59;;;;;;;5.22;1.63;;;;;;;22.55;100.00;101406.50;10479581;28;20032;-67
2023/08/15 09:56:00;;;;;;;2.95;1.00;;;;;;;23.23;100.00;101395.00;10461309;28;20067;-68
2023/08/15 10:01:01;;;;;;;3.90;1.00;;;;;;;23.73;100.00;101397.38;10477692;28;20044;-68
2023/08/15 10:06:02;;;;;;;6.03;1.30;;;;;;;23.27;100.00;101423.25;10465212;28;20115;-69
2023/08/15 10:11:10;;;;;;;5.20;1.98;;;;;;;23.11;100.00;101426.53;10481495;28;20062;-67
2023/08/15 10:16:12;;;;;;;5.30;1.15;;;;;;;23.03;100.00;101432.97;10460253;28;20044;-67
2023/08/15 10:21:12;;;;;;;3.45;1.10;;;;;;;22.76;100.00;101440.44;10429082;28;20644;-68
2023/08/15 10:26:13;;;;;;;4.72;1.30;;;;;;;23.00;100.00;101442.00;10437454;28;20056;-67
2023/08/15 10:31:13;;;;;;;2.83;1.10;;;;;;;22.92;100.00;101442.78;10442892;28;20044;-68
2023/08/15 10:36:14;;;;;;;6.45;1.30;;;;;;;22.91;100.00;101446.75;10429057;28;20045;-67
2023/08/15 10:41:16;;;;;;;4.80;0.93;;;;;;;22.82;100.00;101452.34;10429422;28;20049;-68
2023/08/15 10:46:18;;;;;;;3.63;1.45;;;;;;;23.06;100.00;101460.38;10442463;28;20483;-67
2023/08/15 10:51:25;;;;;;;2.88;0.90;;;;;;;23.59;100.00;101457.72;10430405;28;20064;-66
2023/08/15 10:56:30;;;;;;;4.72;1.35;;;;;;;23.99;100.00;101463.22;10407867;28;20063;-67
2023/08/15 11:01:31;;;;;;;3.33;1.10;;;;;;;24.16;100.00;101466.00;10407451;28;20134;-67
2023/08/15 11:06:40;;;;;;;2.33;0.98;;;;;;;24.09;100.00;101465.69;10425125;28;20051;-66
2023/08/15 11:11:41;;;;;;;2.90;1.00;;;;;;;24.41;100.00;101461.50;10458770;28;20033;-67
2023/08/15 11:16:41;;;;;;;3.72;0.80;;;;;;;24.57;100.00;101481.53;10457618;28;20049;-66
2023/08/15 11:21:42;;;;;;;5.13;1.00;;;;;;;24.79;100.00;101465.56;10463617;28;20045;-66
2023/08/15 11:26:42;;;;;;;1.80;0.80;;;;;;;24.91;100.00;101469.34;10465858;28;20041;-67
2023/08/15 11:31:43;;;;;;;3.20;0.90;;;;;;;25.30;100.00;101453.25;10468135;28;20044;-66
2023/08/15 11:36:44;;;;;;;3.70;1.23;;;;;;;25.46;100.00;101455.47;10459348;28;20114;-67
2023/08/15 11:41:45;;;;;;;5.60;1.33;;;;;;;25.37;100.00;101464.81;10440907;28;20049;-67
2023/08/15 11:46:45;;;;;;;3.25;1.50;;;;;;;25.85;100.00;101459.81;10451309;28;20037;-67
2023/08/15 11:51:46;;;;;;;3.20;1.10;;;;;;;26.50;100.00;101474.34;10459272;28;20041;-66
2023/08/15 11:56:51;;;;;;;5.93;1.92;;;;;;;26.93;100.00;101460.91;10468695;28;20052;-67
2023/08/15 12:01:51;;;;;;;4.75;1.58;;;;;;;27.11;100.00;101458.69;10465854;28;20437;-68
2023/08/15 12:06:52;;;;;;;5.30;1.38;;;;;;;27.16;100.00;101464.94;10460190;28;20109;-66
2023/08/15 12:11:53;;;;;;;5.97;1.42;;;;;;;26.84;100.00;101463.84;10457533;28;20090;-66
2023/08/15 12:16:54;;;;;;;2.67;1.00;;;;;;;26.93;100.00;101466.56;10464120;28;20037;-67
2023/08/15 12:21:56;;;;;;;3.13;0.98;;;;;;;26.46;100.00;101469.72;10463020;28;20136;-67
2023/08/15 12:26:56;;;;;;;3.33;1.20;;;;;;;26.56;100.00;101480.56;10463700;28;20057;-71
2023/08/15 12:31:57;;;;;;;5.20;0.93;;;;;;;27.56;100.00;101467.03;10456571;28;20045;-72
2023/08/15 12:36:57;;;;;;;3.72;1.30;;;;;;;26.66;100.00;101474.50;10452043;28;20047;-69
2023/08/15 12:41:58;;;;;;;1.83;0.75;;;;;;;25.94;100.00;101483.19;10473008;28;20047;-70
2023/08/15 12:46:58;;;;;;;2.88;1.13;;;;;;;25.98;100.00;101483.28;10481770;28;20056;-69
2023/08/15 12:51:59;;;;;;;4.30;1.20;;;;;;;26.82;100.00;101490.81;10481728;28;20549;-70
2023/08/15 12:57:01;;;;;;;4.40;1.10;;;;;;;27.57;100.00;101473.50;10456156;28;20037;-69
2023/08/15 13:02:01;;;;;;;3.63;1.05;;;;;;;28.27;100.00;101483.69;10474131;28;20107;-70
2023/08/15 13:07:03;;;;;;;4.85;1.30;;;;;;;28.06;100.00;101483.91;10477788;28;20041;-67
2023/08/15 13:12:04;;;;;;;4.10;2.08;;;;;;;28.07;100.00;101471.38;10477576;28;20109;-66
2023/08/15 13:17:05;;;;;;;2.90;0.98;;;;;;;27.83;100.00;101480.78;10480001;28;20144;-67
2023/08/15 13:22:05;;;;;;;8.23;1.60;;;;;;;26.55;100.00;101502.34;10482775;28;20080;-67
2023/08/15 13:27:05;;;;;;;3.03;1.20;;;;;;;25.76;100.00;101518.31;10486768;28;20025;-67
2023/08/15 13:32:06;;;;;;;4.80;1.05;;;;;;;25.63;100.00;101506.09;10485821;28;20033;-67
2023/08/15 13:37:06;;;;;;;2.85;1.20;;;;;;;25.66;100.00;101513.06;10485246;28;20175;-66
2023/08/15 13:42:07;;;;;;;6.85;1.13;;;;;;;25.78;100.00;101513.97;10481666;28;20045;-69
2023/08/15 13:47:07;;;;;;;3.80;1.00;;;;;;;25.63;100.00;101516.53;10486954;28;20044;-70
2023/08/15 13:52:08;;;;;;;1.55;0.80;;;;;;;25.29;100.00;101543.78;10480837;28;20062;-69
2023/08/15 13:57:08;;;;;;;1.63;0.98;;;;;;;25.02;100.00;101522.47;10477686;28;20048;-69
2023/08/15 14:02:08;;;;;;;6.45;1.83;;;;;;;25.24;100.00;101532.66;10482015;28;20040;-70
2023/08/15 14:07:09;;;;;;;2.83;1.42;;;;;;;25.10;100.00;101535.72;10474267;28;20067;-70
2023/08/15 14:12:09;;;;;;;2.45;1.20;;;;;;;25.95;100.00;101527.13;10478922;28;20037;-70
2023/08/15 14:17:10;;;;;;;4.18;1.52;;;;;;;26.93;100.00;101518.22;10481898;28;20051;-69
2023/08/15 14:22:10;;;;;;;3.08;1.30;;;;;;;27.11;100.00;101518.84;10483113;28;20067;-68
2023/08/15 14:27:11;;;;;;;5.47;1.40;;;;;;;26.51;100.00;101523.16;10478632;28;20074;-70
2023/08/15 14:32:12;;;;;;;4.18;1.70;;;;;;;26.16;100.00;101540.41;10480247;28;20034;-70
2023/08/15 14:37:12;;;;;;;3.30;1.23;;;;;;;25.36;100.00;101553.34;10483710;28;20044;-70
2023/08/15 14:42:13;;;;;;;2.63;1.40;;;;;;;24.89;100.00;101555.34;10477681;28;20037;-69
2023/08/15 14:47:14;;;;;;;3.63;1.38;;;;;;;24.80;100.00;101563.78;10495885;28;20136;-70
2023/08/15 14:52:14;;;;;;;3.53;1.35;;;;;;;24.26;100.00;101563.31;10422756;28;20117;-69
2023/08/15 14:57:15;;;;;;;2.67;1.00;;;;;;;23.97;100.00;101576.84;10431384;28;20063;-69
2023/08/15 15:02:16;;;;;;;1.83;1.00;;;;;;;23.96;100.00;101558.34;10425249;28;20033;-72
2023/08/15 15:07:17;;;;;;;3.75;1.38;;;;;;;24.08;100.00;101576.53;10423023;28;20045;-70
2023/08/15 15:12:17;;;;;;;1.60;0.90;;;;;;;24.11;100.00;101585.16;10449877;28;20033;-67
2023/08/15 15:17:18;;;;;;;3.42;1.80;;;;;;;24.10;100.00;101569.44;10458942;28;20036;-70
2023/08/15 15:22:19;;;;;;;2.58;1.00;;;;;;;24.65;100.00;101567.94;10459932;28;20049;-68
2023/08/15 15:27:19;;;;;;;2.03;1.00;;;;;;;24.91;100.00;101572.72;10442875;28;20099;-68
2023/08/15 15:32:20;;;;;;;4.03;1.83;;;;;;;24.97;100.00;101579.81;10461816;28;20053;-68
2023/08/15 15:37:20;;;;;;;2.85;1.05;;;;;;;24.52;100.00;101571.78;10474922;28;20049;-72
2023/08/15 15:42:21;;;;;;;1.95;0.70;;;;;;;24.53;100.00;101577.06;10465748;28;20039;-72
2023/08/15 15:47:22;;;;;;;2.92;0.82;;;;;;;24.49;100.00;101576.06;10464590;28;20036;-73
2023/08/15 15:52:23;;;;;;;1.88;0.75;;;;;;;24.42;100.00;101580.53;10443490;28;20055;-70
2023/08/15 15:57:23;;;;;;;3.88;1.17;;;;;;;24.49;100.00;101586.47;10476383;28;20055;-74
2023/08/15 16:02:23;;;;;;;3.60;0.90;;;;;;;25.26;100.00;101584.75;10437756;28;20044;-71
2023/08/15 16:07:24;;;;;;;5.45;0.90;;;;;;;25.25;100.00;101585.06;10451196;28;20068;-68
2023/08/15 16:12:25;;;;;;;1.38;0.90;;;;;;;24.99;100.00;101577.47;10469271;28;20051;-69
2023/08/15 16:17:26;;;;;;;4.85;1.20;;;;;;;24.39;100.00;101593.25;10473255;28;20720;-68
2023/08/15 16:22:26;;;;;;;2.28;0.80;;;;;;;23.97;100.00;101582.47;10473389;28;20454;-70
2023/08/15 16:27:27;;;;;;;4.65;1.00;;;;;;;23.85;100.00;101599.16;10453883;28;20062;-67
2023/08/15 16:32:27;;;;;;;3.63;1.27;;;;;;;23.59;100.00;101603.88;10462850;28;20070;-66
2023/08/15 16:37:27;;;;;;;6.05;1.45;;;;;;;23.28;100.00;101615.97;10463704;28;20047;-70
2023/08/15 16:42:28;;;;;;;5.10;1.50;;;;;;;23.10;100.00;101615.03;10451359;28;20055;-70
2023/08/15 16:47:28;;;;;;;5.57;1.45;;;;;;;22.90;100.00;101610.75;10468151;28;20044;-70
2023/08/15 16:52:29;;;;;;;4.38;2.38;;;;;;;22.77;100.00;101618.09;10474106;28;20033;-72
2023/08/15 16:57:29;;;;;;;5.22;1.60;;;;;;;22.75;100.00;101626.81;10450253;28;20044;-73
2023/08/15 17:02:30;;;;;;;4.82;1.17;;;;;;;22.76;100.00;101620.09;10460788;28;20029;-71
2023/08/15 17:07:30;;;;;;;3.58;1.88;;;;;;;22.70;100.00;101629.78;10465567;28;20052;-77
2023/08/15 17:12:31;;;;;;;3.30;0.90;;;;;;;22.45;100.00;101633.19;10482532;28;20129;-65
2023/08/15 17:17:32;;;;;;;2.40;0.73;;;;;;;22.18;100.00;101632.09;10486568;28;20047;-65
2023/08/15 17:22:32;;;;;;;2.65;1.00;;;;;;;21.96;100.00;101647.69;10482153;28;20040;-66
2023/08/15 17:27:33;;;;;;;2.92;1.20;;;;;;;21.81;100.00;101648.03;10486260;28;20104;-66
2023/08/15 17:32:33;;;;;;;5.32;0.80;;;;;;;21.83;100.00;101650.50;10482839;28;20036;-66
2023/08/15 17:37:34;;;;;;;2.03;0.75;;;;;;;21.72;100.00;101667.53;10485909;28;20602;-65
2023/08/15 17:42:34;;;;;;;5.20;0.90;;;;;;;21.50;100.00;101670.22;10481468;28;20040;-66
2023/08/15 17:47:37;;;;;;;2.72;0.70;;;;;;;21.19;100.00;101678.28;10487157;28;20043;-66
2023/08/15 17:52:37;;;;;;;3.63;0.80;;;;;;;21.06;100.00;101689.16;10484568;28;20041;-66
2023/08/15 17:57:38;;;;;;;1.88;0.90;;;;;;;20.80;100.00;101690.72;10486544;28;20053;-66
2023/08/15 18:02:38;;;;;;;3.63;1.10;;;;;;;20.62;100.00;101695.19;10484881;28;20063;-64
2023/08/15 18:07:39;;;;;;;3.17;0.90;;;;;;;20.52;100.00;101719.31;10483451;28;20439;-65
2023/08/15 18:12:39;;;;;;;1.85;0.70;;;;;;;20.39;100.00;101722.88;10481605;28;20037;-66
2023/08/15 18:17:40;;;;;;;2.45;1.00;;;;;;;20.26;100.00;101726.41;10483009;28;20045;-66
2023/08/15 18:22:41;;;;;;;3.20;0.57;;;;;;;20.08;100.00;101733.63;10478422;28;20117;-66
2023/08/15 18:27:42;;;;;;;1.83;0.75;;;;;;;19.88;100.00;101745.84;10463172;28;20056;-66
2023/08/15 18:32:42;;;;;;;2.17;0.75;;;;;;;19.63;100.00;101758.94;10483191;28;20045;-66
2023/08/15 18:37:45;;;;;;;1.48;0.73;;;;;;;19.35;100.00;101752.22;10479529;28;20051;-66
2023/08/15 18:42:45;;;;;;;2.05;0.82;;;;;;;19.22;100.00;101769.63;10478095;28;20044;-66
2023/08/15 18:47:46;;;;;;;2.50;0.85;;;;;;;18.99;100.00;101772.03;10456980;28;20037;-66
2023/08/15 18:52:47;;;;;;;1.83;0.60;;;;;;;18.75;100.00;101785.81;10496718;28;20087;-66
2023/08/15 18:57:47;;;;;;;2.47;0.60;;;;;;;18.53;100.00;101786.22;10476695;28;20092;-65
2023/08/15 19:02:48;;;;;;;2.08;0.82;;;;;;;18.29;100.00;101798.03;10462530;28;20065;-64
2023/08/15 19:07:48;;;;;;;4.68;0.90;;;;;;;18.04;100.00;101817.59;10480232;28;20036;-65
2023/08/15 19:12:49;;;;;;;5.45;0.90;;;;;;;17.84;100.00;101824.88;10479247;28;20037;-67
2023/08/15 19:17:50;;;;;;;2.70;1.00;;;;;;;17.66;100.00;101823.44;10478485;28;20041;-66
2023/08/15 19:22:51;;;;;;;2.80;1.00;;;;;;;17.47;100.00;101837.09;10475376;28;20041;-65
2023/08/15 19:27:52;;;;;;;1.48;0.77;;;;;;;17.30;100.00;101851.28;10479636;28;20045;-66
2023/08/15 19:32:52;;;;;;;1.75;0.70;;;;;;;17.10;100.00;101838.16;10483479;28;20041;-66
2023/08/15 19:37:53;;;;;;;2.53;1.00;;;;;;;17.01;100.00;101850.94;10471237;28;20047;-66
2023/08/15 19:42:53;;;;;;;2.33;1.05;;;;;;;16.93;100.00;101854.25;10472557;28;20040;-67
2023/08/15 19:47:54;;;;;;;1.88;1.23;;;;;;;16.94;100.00;101861.47;10468609;28;20160;-66
2023/08/15 19:52:55;;;;;;;2.25;1.33;;;;;;;17.00;100.00;101865.94;10481568;28;20067;-66
2023/08/15 19:57:55;;;;;;;4.80;1.70;;;;;;;16.98;100.00;101868.16;10449666;28;20040;-66
2023/08/15 20:02:56;;;;;;;6.35;1.92;;;;;;;16.97;100.00;101868.44;10460707;28;20044;-66
2023/08/15 20:07:56;;;;;;;3.55;1.48;;;;;;;16.94;100.00;101862.31;10476208;28;20063;-66
2023/08/15 20:12:57;;;;;;;10.13;2.20;;;;;;;16.86;100.00;101864.78;10474783;28;20037;-66
2023/08/15 20:17:57;;;;;;;6.60;1.70;;;;;;;16.73;100.00;101866.94;10476351;28;20048;-67
2023/08/15 20:22:58;;;;;;;9.38;2.33;;;;;;;16.64;100.00;101873.28;10476167;28;20040;-66
2023/08/15 20:27:58;;;;;;;4.88;1.65;;;;;;;16.61;100.00;101876.59;10473902;28;20702;-67
2023/08/15 20:32:59;;;;;;;6.03;2.58;;;;;;;16.57;100.00;101867.97;10481328;28;20098;-66
2023/08/15 20:37:59;;;;;;;9.45;3.17;;;;;;;16.55;100.00;101876.56;10444725;28;20118;-66
2023/08/15 20:43:00;;;;;;;9.77;3.03;;;;;;;16.48;100.00;101877.94;10476771;28;20036;-65
2023/08/15 20:48:00;;;;;;;6.15;3.00;;;;;;;16.44;100.00;101885.97;10472329;28;20598;-65
2023/08/15 20:53:01;;;;;;;6.05;3.05;;;;;;;16.30;100.00;101891.16;10473584;28;20072;-66
2023/08/15 20:58:01;;;;;;;9.98;2.88;;;;;;;16.22;100.00;101897.22;10463362;28;20055;-65
2023/08/15 21:03:02;;;;;;;6.00;3.08;;;;;;;16.18;100.00;101890.53;10472894;28;20041;-66
2023/08/15 21:08:03;;;;;;;4.68;2.38;;;;;;;16.14;100.00;101895.81;10447318;28;20079;-66
2023/08/15 21:13:04;;;;;;;4.90;2.33;;;;;;;16.03;100.00;101890.44;10452043;28;20052;-65
2023/08/15 21:18:04;;;;;;;6.78;2.80;;;;;;;15.88;100.00;101889.19;10471519;28;20048;-66
2023/08/15 21:23:05;;;;;;;5.72;2.60;;;;;;;15.77;100.00;101892.16;10468624;28;20057;-66
2023/08/15 21:28:05;;;;;;;5.38;2.42;;;;;;;15.59;100.00;101882.25;10479846;28;20150;-66
2023/08/15 21:33:06;;;;;;;5.53;2.25;;;;;;;15.51;100.00;101898.28;10447446;28;20028;-65
2023/08/15 21:38:08;;;;;;;7.07;2.88;;;;;;;15.36;100.00;101900.91;10474589;28;20071;-65
2023/08/15 21:43:09;;;;;;;6.25;2.80;;;;;;;15.24;100.00;101889.13;10478167;28;20037;-66
2023/08/15 21:48:09;;;;;;;8.20;2.70;;;;;;;15.19;100.00;101897.38;10465827;28;20041;-65
2023/08/15 21:53:10;;;;;;;6.97;2.80;;;;;;;15.08;100.00;101890.88;10479009;28;20075;-65
2023/08/15 21:58:10;;;;;;;6.13;2.78;;;;;;;14.90;100.00;101901.22;10477603;28;20698;-65
2023/08/15 22:03:11;;;;;;;4.57;2.53;;;;;;;14.79;100.00;101904.13;10481697;28;20079;-65
2023/08/15 22:08:11;;;;;;;5.45;2.90;;;;;;;14.67;100.00;101895.94;10469432;28;20120;-65
2023/08/15 22:13:12;;;;;;;8.15;3.17;;;;;;;14.61;100.00;101902.50;10479213;28;20033;-66
2023/08/15 22:18:12;;;;;;;5.60;3.28;;;;;;;14.54;100.00;101910.97;10480661;28;20124;-66
2023/08/15 22:23:13;;;;;;;8.95;3.35;;;;;;;14.55;100.00;101915.41;10484491;28;20032;-65
2023/08/15 22:28:14;;;;;;;7.57;4.35;;;;;;;14.48;100.00;101920.28;10483358;28;20496;-66
2023/08/15 22:33:14;;;;;;;5.18;3.30;;;;;;;14.37;100.00;101918.50;10466867;28;20044;-65
2023/08/15 22:38:15;;;;;;;6.93;3.63;;;;;;;14.06;100.00;101880.06;10460299;28;20040;-64